sensor_id;sensor_type;location;lat;lon;timestamp;P1;durP1;ratioP1;P2;durP2;ratioP2
22240;SDS011;11289;52.524;13.694;2023-04-01T00:00:29;5.90;;;3.35;;
22240;SDS011;11289;52.524;13.694;2023-04-01T00:02:55;5.22;;;3.35;;
22240;SDS011;11289;52.524;13.694;2023-04-01T00:05:21;6.20;;;2.58;;
22240;SDS011;11289;52.524;13.694;2023-04-01T00:07:47;4.38;;;3.05;;
22240;SDS011;11289;52.524;13.694;2023-04-01T00:10:13;6.38;;;3.47;;
22240;SDS011;11289;52.524;13.694;2023-04-01T00:12:40;4.47;;;3.28;;
22240;SDS011;11289;52.524;13.694;2023-04-01T00:15:08;7.10;;;3.13;;
22240;SDS011;11289;52.524;13.694;2023-04-01T00:17:36;5.40;;;3.00;;
22240;SDS011;11289;52.524;13.694;2023-04-01T00:20:02;5.75;;;3.88;;
22240;SDS011;11289;52.524;13.694;2023-04-01T00:22:28;6.18;;;3.53;;
22240;SDS011;11289;52.524;13.694;2023-04-01T00:24:54;5.07;;;3.70;;
22240;SDS011;11289;52.524;13.694;2023-04-01T00:27:21;5.70;;;3.60;;
22240;SDS011;11289;52.524;13.694;2023-04-01T00:29:46;5.55;;;3.75;;
22240;SDS011;11289;52.524;13.694;2023-04-01T00:32:13;4.97;;;3.42;;
22240;SDS011;11289;52.524;13.694;2023-04-01T00:34:40;5.68;;;3.63;;
22240;SDS011;11289;52.524;13.694;2023-04-01T00:37:08;5.32;;;3.22;;
22240;SDS011;11289;52.524;13.694;2023-04-01T00:40:39;3.97;;;3.10;;
22240;SDS011;11289;52.524;13.694;2023-04-01T00:44:21;7.40;;;3.55;;
22240;SDS011;11289;52.524;13.694;2023-04-01T00:51:39;3.92;;;3.50;;
22240;SDS011;11289;52.524;13.694;2023-04-01T00:54:43;5.28;;;3.67;;
22240;SDS011;11289;52.524;13.694;2023-04-01T00:57:48;5.43;;;3.58;;
22240;SDS011;11289;52.524;13.694;2023-04-01T01:01:15;7.93;;;3.88;;
22240;SDS011;11289;52.524;13.694;2023-04-01T01:03:42;6.70;;;3.92;;
22240;SDS011;11289;52.524;13.694;2023-04-01T01:11:35;5.55;;;3.78;;
22240;SDS011;11289;52.524;13.694;2023-04-01T01:16:53;7.45;;;3.80;;
22240;SDS011;11289;52.524;13.694;2023-04-01T01:23:10;5.53;;;3.58;;
22240;SDS011;11289;52.524;13.694;2023-04-01T01:28:48;7.40;;;3.90;;
22240;SDS011;11289;52.524;13.694;2023-04-01T01:31:44;6.40;;;4.88;;
22240;SDS011;11289;52.524;13.694;2023-04-01T01:37:08;6.30;;;4.43;;
22240;SDS011;11289;52.524;13.694;2023-04-01T01:39:41;6.30;;;4.35;;
22240;SDS011;11289;52.524;13.694;2023-04-01T01:42:11;6.10;;;4.80;;
22240;SDS011;11289;52.524;13.694;2023-04-01T01:44:41;8.52;;;4.30;;
22240;SDS011;11289;52.524;13.694;2023-04-01T01:47:11;7.85;;;4.22;;
22240;SDS011;11289;52.524;13.694;2023-04-01T01:49:39;7.05;;;4.38;;
22240;SDS011;11289;52.524;13.694;2023-04-01T01:52:06;9.13;;;4.63;;
22240;SDS011;11289;52.524;13.694;2023-04-01T01:54:32;6.80;;;4.18;;
22240;SDS011;11289;52.524;13.694;2023-04-01T01:57:04;6.60;;;5.00;;
22240;SDS011;11289;52.524;13.694;2023-04-01T01:59:33;6.10;;;4.68;;
22240;SDS011;11289;52.524;13.694;2023-04-01T02:02:03;7.93;;;4.68;;
22240;SDS011;11289;52.524;13.694;2023-04-01T02:04:34;4.68;;;3.67;;
22240;SDS011;11289;52.524;13.694;2023-04-01T02:07:07;6.53;;;4.30;;
22240;SDS011;11289;52.524;13.694;2023-04-01T02:09:39;6.38;;;4.07;;
22240;SDS011;11289;52.524;13.694;2023-04-01T02:12:06;7.75;;;4.60;;
22240;SDS011;11289;52.524;13.694;2023-04-01T02:14:39;9.45;;;4.63;;
22240;SDS011;11289;52.524;13.694;2023-04-01T02:17:10;4.93;;;3.40;;
22240;SDS011;11289;52.524;13.694;2023-04-01T02:19:46;9.45;;;3.65;;
22240;SDS011;11289;52.524;13.694;2023-04-01T02:22:23;7.05;;;4.25;;
22240;SDS011;11289;52.524;13.694;2023-04-01T02:24:58;5.40;;;3.60;;
22240;SDS011;11289;52.524;13.694;2023-04-01T02:27:30;9.13;;;4.20;;
22240;SDS011;11289;52.524;13.694;2023-04-01T02:29:56;8.40;;;4.18;;
22240;SDS011;11289;52.524;13.694;2023-04-01T02:32:23;8.05;;;5.13;;
22240;SDS011;11289;52.524;13.694;2023-04-01T02:34:50;6.65;;;5.07;;
22240;SDS011;11289;52.524;13.694;2023-04-01T02:37:17;7.15;;;4.68;;
22240;SDS011;11289;52.524;13.694;2023-04-01T02:39:43;6.85;;;5.22;;
22240;SDS011;11289;52.524;13.694;2023-04-01T02:42:10;7.10;;;5.10;;
22240;SDS011;11289;52.524;13.694;2023-04-01T02:44:36;10.02;;;5.32;;
22240;SDS011;11289;52.524;13.694;2023-04-01T02:47:02;7.80;;;5.22;;
22240;SDS011;11289;52.524;13.694;2023-04-01T02:49:28;7.45;;;4.93;;
22240;SDS011;11289;52.524;13.694;2023-04-01T02:51:54;7.53;;;4.93;;
22240;SDS011;11289;52.524;13.694;2023-04-01T02:54:20;9.70;;;5.78;;
22240;SDS011;11289;52.524;13.694;2023-04-01T02:56:46;8.70;;;5.30;;
22240;SDS011;11289;52.524;13.694;2023-04-01T02:59:12;9.50;;;5.30;;
22240;SDS011;11289;52.524;13.694;2023-04-01T03:01:38;7.65;;;5.55;;
22240;SDS011;11289;52.524;13.694;2023-04-01T03:04:04;8.00;;;5.28;;
22240;SDS011;11289;52.524;13.694;2023-04-01T03:06:30;6.88;;;5.28;;
22240;SDS011;11289;52.524;13.694;2023-04-01T03:08:56;7.18;;;5.30;;
22240;SDS011;11289;52.524;13.694;2023-04-01T03:11:22;8.43;;;5.00;;
22240;SDS011;11289;52.524;13.694;2023-04-01T03:13:48;8.32;;;5.00;;
22240;SDS011;11289;52.524;13.694;2023-04-01T03:16:14;8.50;;;5.68;;
22240;SDS011;11289;52.524;13.694;2023-04-01T03:18:40;9.13;;;5.75;;
22240;SDS011;11289;52.524;13.694;2023-04-01T03:21:17;10.48;;;6.68;;
22240;SDS011;11289;52.524;13.694;2023-04-01T03:23:45;11.05;;;6.30;;
22240;SDS011;11289;52.524;13.694;2023-04-01T03:26:11;10.55;;;6.35;;
22240;SDS011;11289;52.524;13.694;2023-04-01T03:28:37;10.77;;;6.72;;
22240;SDS011;11289;52.524;13.694;2023-04-01T03:31:03;10.10;;;7.22;;
22240;SDS011;11289;52.524;13.694;2023-04-01T03:33:31;9.00;;;6.47;;
22240;SDS011;11289;52.524;13.694;2023-04-01T03:35:57;10.98;;;7.07;;
22240;SDS011;11289;52.524;13.694;2023-04-01T03:38:23;10.07;;;7.10;;
22240;SDS011;11289;52.524;13.694;2023-04-01T03:40:49;11.90;;;7.57;;
22240;SDS011;11289;52.524;13.694;2023-04-01T03:43:15;11.43;;;6.95;;
22240;SDS011;11289;52.524;13.694;2023-04-01T03:45:48;10.82;;;6.60;;
22240;SDS011;11289;52.524;13.694;2023-04-01T03:48:15;11.40;;;7.00;;
22240;SDS011;11289;52.524;13.694;2023-04-01T03:50:42;11.18;;;7.13;;
22240;SDS011;11289;52.524;13.694;2023-04-01T03:53:09;11.10;;;7.45;;
22240;SDS011;11289;52.524;13.694;2023-04-01T03:55:35;12.52;;;8.48;;
22240;SDS011;11289;52.524;13.694;2023-04-01T03:58:02;13.05;;;8.32;;
22240;SDS011;11289;52.524;13.694;2023-04-01T04:00:29;9.77;;;7.00;;
22240;SDS011;11289;52.524;13.694;2023-04-01T04:02:56;11.85;;;7.25;;
22240;SDS011;11289;52.524;13.694;2023-04-01T04:05:23;11.15;;;7.50;;
22240;SDS011;11289;52.524;13.694;2023-04-01T04:07:49;11.55;;;7.65;;
22240;SDS011;11289;52.524;13.694;2023-04-01T04:10:16;11.73;;;7.63;;
22240;SDS011;11289;52.524;13.694;2023-04-01T04:12:42;9.88;;;6.78;;
22240;SDS011;11289;52.524;13.694;2023-04-01T04:15:08;12.55;;;8.05;;
22240;SDS011;11289;52.524;13.694;2023-04-01T04:17:34;13.75;;;7.85;;
22240;SDS011;11289;52.524;13.694;2023-04-01T04:20:01;10.43;;;7.25;;
22240;SDS011;11289;52.524;13.694;2023-04-01T04:22:27;11.73;;;8.32;;
22240;SDS011;11289;52.524;13.694;2023-04-01T04:24:53;14.15;;;7.95;;
22240;SDS011;11289;52.524;13.694;2023-04-01T04:27:19;14.48;;;8.00;;
22240;SDS011;11289;52.524;13.694;2023-04-01T04:29:45;12.85;;;8.57;;
22240;SDS011;11289;52.524;13.694;2023-04-01T04:32:11;13.38;;;8.52;;
22240;SDS011;11289;52.524;13.694;2023-04-01T04:34:37;10.40;;;7.38;;
22240;SDS011;11289;52.524;13.694;2023-04-01T04:37:03;14.52;;;8.68;;
22240;SDS011;11289;52.524;13.694;2023-04-01T04:39:29;14.25;;;8.80;;
22240;SDS011;11289;52.524;13.694;2023-04-01T04:41:55;16.27;;;8.98;;
22240;SDS011;11289;52.524;13.694;2023-04-01T04:44:21;14.63;;;8.98;;
22240;SDS011;11289;52.524;13.694;2023-04-01T04:46:47;12.48;;;7.75;;
22240;SDS011;11289;52.524;13.694;2023-04-01T04:49:13;14.43;;;9.45;;
22240;SDS011;11289;52.524;13.694;2023-04-01T04:51:39;16.63;;;9.65;;
22240;SDS011;11289;52.524;13.694;2023-04-01T04:54:06;12.40;;;9.00;;
22240;SDS011;11289;52.524;13.694;2023-04-01T04:56:32;16.67;;;10.27;;
22240;SDS011;11289;52.524;13.694;2023-04-01T04:58:59;21.58;;;12.00;;
22240;SDS011;11289;52.524;13.694;2023-04-01T05:01:25;17.65;;;10.27;;
22240;SDS011;11289;52.524;13.694;2023-04-01T05:03:51;15.75;;;11.07;;
22240;SDS011;11289;52.524;13.694;2023-04-01T05:06:17;14.27;;;9.23;;
22240;SDS011;11289;52.524;13.694;2023-04-01T05:08:44;15.60;;;9.73;;
22240;SDS011;11289;52.524;13.694;2023-04-01T05:11:14;14.35;;;9.40;;
22240;SDS011;11289;52.524;13.694;2023-04-01T05:13:42;16.92;;;9.88;;
22240;SDS011;11289;52.524;13.694;2023-04-01T05:16:10;13.30;;;9.50;;
22240;SDS011;11289;52.524;13.694;2023-04-01T05:18:37;15.07;;;10.05;;
22240;SDS011;11289;52.524;13.694;2023-04-01T05:21:04;15.38;;;9.60;;
22240;SDS011;11289;52.524;13.694;2023-04-01T05:23:30;13.25;;;8.85;;
22240;SDS011;11289;52.524;13.694;2023-04-01T05:25:57;14.32;;;9.27;;
22240;SDS011;11289;52.524;13.694;2023-04-01T05:28:23;13.20;;;8.60;;
22240;SDS011;11289;52.524;13.694;2023-04-01T05:30:49;14.75;;;9.75;;
22240;SDS011;11289;52.524;13.694;2023-04-01T05:33:16;17.27;;;9.27;;
22240;SDS011;11289;52.524;13.694;2023-04-01T05:35:42;15.05;;;9.70;;
22240;SDS011;11289;52.524;13.694;2023-04-01T05:38:08;12.95;;;9.25;;
22240;SDS011;11289;52.524;13.694;2023-04-01T05:40:34;14.98;;;9.50;;
22240;SDS011;11289;52.524;13.694;2023-04-01T05:43:00;13.77;;;8.63;;
22240;SDS011;11289;52.524;13.694;2023-04-01T05:45:26;15.75;;;9.95;;
22240;SDS011;11289;52.524;13.694;2023-04-01T05:47:53;13.60;;;8.63;;
22240;SDS011;11289;52.524;13.694;2023-04-01T05:50:19;16.05;;;9.13;;
22240;SDS011;11289;52.524;13.694;2023-04-01T05:52:45;16.95;;;9.35;;
22240;SDS011;11289;52.524;13.694;2023-04-01T05:55:11;12.35;;;8.32;;
22240;SDS011;11289;52.524;13.694;2023-04-01T05:57:37;15.40;;;9.05;;
22240;SDS011;11289;52.524;13.694;2023-04-01T06:00:04;15.57;;;9.68;;
22240;SDS011;11289;52.524;13.694;2023-04-01T06:02:30;17.20;;;10.57;;
22240;SDS011;11289;52.524;13.694;2023-04-01T06:05:09;18.92;;;11.35;;
22240;SDS011;11289;52.524;13.694;2023-04-01T06:07:47;17.38;;;11.38;;
22240;SDS011;11289;52.524;13.694;2023-04-01T06:10:14;22.27;;;13.20;;
22240;SDS011;11289;52.524;13.694;2023-04-01T06:15:39;24.00;;;13.93;;
22240;SDS011;11289;52.524;13.694;2023-04-01T06:21:05;19.02;;;10.30;;
22240;SDS011;11289;52.524;13.694;2023-04-01T06:32:29;13.30;;;8.60;;
22240;SDS011;11289;52.524;13.694;2023-04-01T06:43:34;15.80;;;8.95;;
22240;SDS011;11289;52.524;13.694;2023-04-01T06:54:16;20.13;;;10.70;;
22240;SDS011;11289;52.524;13.694;2023-04-01T06:56:46;16.52;;;12.40;;
22240;SDS011;11289;52.524;13.694;2023-04-01T06:59:25;16.80;;;10.33;;
22240;SDS011;11289;52.524;13.694;2023-04-01T07:01:54;14.45;;;10.02;;
22240;SDS011;11289;52.524;13.694;2023-04-01T07:04:33;14.43;;;10.73;;
22240;SDS011;11289;52.524;13.694;2023-04-01T07:07:19;15.05;;;9.63;;
22240;SDS011;11289;52.524;13.694;2023-04-01T07:10:11;13.90;;;8.85;;
22240;SDS011;11289;52.524;13.694;2023-04-01T07:12:53;13.85;;;8.60;;
22240;SDS011;11289;52.524;13.694;2023-04-01T07:15:23;12.27;;;8.07;;
22240;SDS011;11289;52.524;13.694;2023-04-01T07:18:37;10.70;;;7.78;;
22240;SDS011;11289;52.524;13.694;2023-04-01T07:20:55;9.93;;;7.55;;
22240;SDS011;11289;52.524;13.694;2023-04-01T07:23:24;12.00;;;7.43;;
22240;SDS011;11289;52.524;13.694;2023-04-01T07:25:55;10.68;;;7.05;;
22240;SDS011;11289;52.524;13.694;2023-04-01T07:28:29;10.13;;;7.55;;
22240;SDS011;11289;52.524;13.694;2023-04-01T07:42:04;13.70;;;7.70;;
22240;SDS011;11289;52.524;13.694;2023-04-01T07:44:40;10.48;;;7.45;;
22240;SDS011;11289;52.524;13.694;2023-04-01T07:50:28;14.77;;;8.00;;
22240;SDS011;11289;52.524;13.694;2023-04-01T07:55:50;11.25;;;7.63;;
22240;SDS011;11289;52.524;13.694;2023-04-01T08:22:38;15.63;;;10.20;;
22240;SDS011;11289;52.524;13.694;2023-04-01T08:25:13;15.00;;;9.52;;
22240;SDS011;11289;52.524;13.694;2023-04-01T08:33:21;15.07;;;8.57;;
22240;SDS011;11289;52.524;13.694;2023-04-01T08:46:53;14.82;;;9.52;;
22240;SDS011;11289;52.524;13.694;2023-04-01T08:49:36;13.23;;;9.38;;
22240;SDS011;11289;52.524;13.694;2023-04-01T09:03:44;12.38;;;8.90;;
22240;SDS011;11289;52.524;13.694;2023-04-01T09:06:24;15.18;;;10.13;;
22240;SDS011;11289;52.524;13.694;2023-04-01T09:11:42;14.35;;;10.25;;
22240;SDS011;11289;52.524;13.694;2023-04-01T09:30:47;10.40;;;7.78;;
22240;SDS011;11289;52.524;13.694;2023-04-01T09:45:11;8.05;;;6.63;;
22240;SDS011;11289;52.524;13.694;2023-04-01T09:53:38;9.85;;;7.30;;
22240;SDS011;11289;52.524;13.694;2023-04-01T09:56:44;9.90;;;7.78;;
22240;SDS011;11289;52.524;13.694;2023-04-01T10:22:17;9.23;;;6.35;;
22240;SDS011;11289;52.524;13.694;2023-04-01T10:25:07;7.38;;;6.55;;
22240;SDS011;11289;52.524;13.694;2023-04-01T10:39:04;7.50;;;5.53;;
22240;SDS011;11289;52.524;13.694;2023-04-01T10:52:53;5.57;;;4.25;;
22240;SDS011;11289;52.524;13.694;2023-04-01T10:55:53;6.85;;;4.13;;
22240;SDS011;11289;52.524;13.694;2023-04-01T11:13:23;6.57;;;2.75;;
22240;SDS011;11289;52.524;13.694;2023-04-01T11:31:23;6.38;;;2.90;;
22240;SDS011;11289;52.524;13.694;2023-04-01T11:37:47;4.18;;;2.30;;
22240;SDS011;11289;52.524;13.694;2023-04-01T11:55:38;4.53;;;2.90;;
22240;SDS011;11289;52.524;13.694;2023-04-01T12:08:00;5.45;;;2.50;;
22240;SDS011;11289;52.524;13.694;2023-04-01T12:10:55;3.97;;;2.78;;
22240;SDS011;11289;52.524;13.694;2023-04-01T12:22:28;4.40;;;3.35;;
22240;SDS011;11289;52.524;13.694;2023-04-01T12:33:54;3.97;;;2.97;;
22240;SDS011;11289;52.524;13.694;2023-04-01T12:42:57;4.95;;;3.05;;
22240;SDS011;11289;52.524;13.694;2023-04-01T12:53:09;4.45;;;3.33;;
22240;SDS011;11289;52.524;13.694;2023-04-01T13:10:04;3.92;;;3.08;;
22240;SDS011;11289;52.524;13.694;2023-04-01T13:15:24;4.15;;;2.95;;
22240;SDS011;11289;52.524;13.694;2023-04-01T13:31:38;4.10;;;3.00;;
22240;SDS011;11289;52.524;13.694;2023-04-01T13:37:22;4.70;;;2.50;;
22240;SDS011;11289;52.524;13.694;2023-04-01T13:42:50;5.75;;;3.45;;
22240;SDS011;11289;52.524;13.694;2023-04-01T13:45:24;19.65;;;17.75;;
22240;SDS011;11289;52.524;13.694;2023-04-01T14:22:43;4.80;;;4.03;;
22240;SDS011;11289;52.524;13.694;2023-04-01T14:30:59;3.45;;;2.67;;
22240;SDS011;11289;52.524;13.694;2023-04-01T14:40:16;3.90;;;3.03;;
22240;SDS011;11289;52.524;13.694;2023-04-01T14:48:59;4.00;;;3.47;;
22240;SDS011;11289;52.524;13.694;2023-04-01T14:51:29;11.35;;;8.07;;
22240;SDS011;11289;52.524;13.694;2023-04-01T14:54:06;18.65;;;14.10;;
22240;SDS011;11289;52.524;13.694;2023-04-01T14:56:41;17.95;;;14.35;;
22240;SDS011;11289;52.524;13.694;2023-04-01T14:59:13;8.15;;;5.95;;
22240;SDS011;11289;52.524;13.694;2023-04-01T15:02:03;9.48;;;8.27;;
22240;SDS011;11289;52.524;13.694;2023-04-01T15:04:49;16.35;;;14.68;;
22240;SDS011;11289;52.524;13.694;2023-04-01T15:13:33;5.63;;;4.90;;
22240;SDS011;11289;52.524;13.694;2023-04-01T15:22:06;7.55;;;4.70;;
22240;SDS011;11289;52.524;13.694;2023-04-01T15:33:10;11.13;;;9.02;;
22240;SDS011;11289;52.524;13.694;2023-04-01T15:36:41;12.70;;;11.52;;
22240;SDS011;11289;52.524;13.694;2023-04-01T15:44:01;7.85;;;6.38;;
22240;SDS011;11289;52.524;13.694;2023-04-01T15:46:44;4.90;;;4.10;;
22240;SDS011;11289;52.524;13.694;2023-04-01T15:52:05;6.57;;;3.97;;
22240;SDS011;11289;52.524;13.694;2023-04-01T15:54:39;7.20;;;5.72;;
22240;SDS011;11289;52.524;13.694;2023-04-01T15:57:18;11.65;;;10.65;;
22240;SDS011;11289;52.524;13.694;2023-04-01T16:13:46;6.30;;;4.40;;
22240;SDS011;11289;52.524;13.694;2023-04-01T16:19:16;8.00;;;5.80;;
22240;SDS011;11289;52.524;13.694;2023-04-01T16:21:52;7.90;;;5.88;;
22240;SDS011;11289;52.524;13.694;2023-04-01T16:37:54;15.88;;;10.48;;
22240;SDS011;11289;52.524;13.694;2023-04-01T16:43:49;11.88;;;8.68;;
22240;SDS011;11289;52.524;13.694;2023-04-01T16:46:31;9.50;;;7.43;;
22240;SDS011;11289;52.524;13.694;2023-04-01T16:49:00;7.45;;;6.68;;
22240;SDS011;11289;52.524;13.694;2023-04-01T16:54:36;8.55;;;6.40;;
22240;SDS011;11289;52.524;13.694;2023-04-01T17:03:04;7.65;;;5.45;;
22240;SDS011;11289;52.524;13.694;2023-04-01T17:05:46;8.52;;;5.25;;
22240;SDS011;11289;52.524;13.694;2023-04-01T17:08:17;8.90;;;5.72;;
22240;SDS011;11289;52.524;13.694;2023-04-01T17:11:41;12.98;;;6.13;;
22240;SDS011;11289;52.524;13.694;2023-04-01T17:19:25;7.07;;;4.70;;
22240;SDS011;11289;52.524;13.694;2023-04-01T17:22:31;4.10;;;3.67;;
22240;SDS011;11289;52.524;13.694;2023-04-01T17:30:28;6.53;;;5.90;;
22240;SDS011;11289;52.524;13.694;2023-04-01T17:35:50;5.20;;;4.13;;
22240;SDS011;11289;52.524;13.694;2023-04-01T17:38:34;4.97;;;4.38;;
22240;SDS011;11289;52.524;13.694;2023-04-01T17:41:14;6.07;;;4.22;;
22240;SDS011;11289;52.524;13.694;2023-04-01T17:49:30;5.93;;;4.57;;
22240;SDS011;11289;52.524;13.694;2023-04-01T17:58:00;8.13;;;4.50;;
22240;SDS011;11289;52.524;13.694;2023-04-01T18:00:37;6.10;;;4.28;;
22240;SDS011;11289;52.524;13.694;2023-04-01T18:06:04;5.80;;;4.80;;
22240;SDS011;11289;52.524;13.694;2023-04-01T18:08:59;7.72;;;5.28;;
22240;SDS011;11289;52.524;13.694;2023-04-01T18:11:34;6.78;;;4.45;;
22240;SDS011;11289;52.524;13.694;2023-04-01T18:14:47;6.22;;;4.05;;
22240;SDS011;11289;52.524;13.694;2023-04-01T18:22:42;10.60;;;5.57;;
22240;SDS011;11289;52.524;13.694;2023-04-01T18:25:14;6.85;;;4.97;;
22240;SDS011;11289;52.524;13.694;2023-04-01T18:27:52;8.95;;;4.07;;
22240;SDS011;11289;52.524;13.694;2023-04-01T18:30:38;5.47;;;3.72;;
22240;SDS011;11289;52.524;13.694;2023-04-01T18:33:19;7.93;;;4.43;;
22240;SDS011;11289;52.524;13.694;2023-04-01T18:40:54;4.85;;;3.63;;
22240;SDS011;11289;52.524;13.694;2023-04-01T18:49:29;7.65;;;5.55;;
22240;SDS011;11289;52.524;13.694;2023-04-01T18:54:55;6.90;;;4.35;;
22240;SDS011;11289;52.524;13.694;2023-04-01T18:57:39;8.05;;;3.78;;
22240;SDS011;11289;52.524;13.694;2023-04-01T19:05:48;5.80;;;4.03;;
22240;SDS011;11289;52.524;13.694;2023-04-01T19:10:53;7.97;;;4.88;;
22240;SDS011;11289;52.524;13.694;2023-04-01T19:28:21;8.73;;;4.95;;
22240;SDS011;11289;52.524;13.694;2023-04-01T19:30:58;9.65;;;4.75;;
22240;SDS011;11289;52.524;13.694;2023-04-01T19:33:41;9.80;;;4.45;;
22240;SDS011;11289;52.524;13.694;2023-04-01T19:41:39;10.35;;;6.28;;
22240;SDS011;11289;52.524;13.694;2023-04-01T19:49:53;12.15;;;6.50;;
22240;SDS011;11289;52.524;13.694;2023-04-01T19:52:39;11.55;;;6.85;;
22240;SDS011;11289;52.524;13.694;2023-04-01T19:55:14;12.13;;;7.03;;
22240;SDS011;11289;52.524;13.694;2023-04-01T19:57:52;15.00;;;6.85;;
22240;SDS011;11289;52.524;13.694;2023-04-01T20:19:33;9.93;;;6.82;;
22240;SDS011;11289;52.524;13.694;2023-04-01T20:22:10;12.57;;;6.90;;
22240;SDS011;11289;52.524;13.694;2023-04-01T20:24:48;12.38;;;6.85;;
22240;SDS011;11289;52.524;13.694;2023-04-01T20:35:26;15.77;;;7.28;;
22240;SDS011;11289;52.524;13.694;2023-04-01T20:40:49;8.85;;;6.38;;
22240;SDS011;11289;52.524;13.694;2023-04-01T20:43:24;13.02;;;7.53;;
22240;SDS011;11289;52.524;13.694;2023-04-01T20:51:26;11.73;;;6.80;;
22240;SDS011;11289;52.524;13.694;2023-04-01T20:54:22;11.23;;;6.40;;
22240;SDS011;11289;52.524;13.694;2023-04-01T21:00:24;13.47;;;7.23;;
22240;SDS011;11289;52.524;13.694;2023-04-01T21:03:03;9.55;;;6.40;;
22240;SDS011;11289;52.524;13.694;2023-04-01T21:14:45;14.63;;;6.90;;
22240;SDS011;11289;52.524;13.694;2023-04-01T21:17:28;12.68;;;6.38;;
22240;SDS011;11289;52.524;13.694;2023-04-01T21:20:18;11.50;;;6.75;;
22240;SDS011;11289;52.524;13.694;2023-04-01T21:25:44;11.00;;;6.32;;
22240;SDS011;11289;52.524;13.694;2023-04-01T21:31:21;11.90;;;5.22;;
22240;SDS011;11289;52.524;13.694;2023-04-01T21:34:28;10.38;;;5.55;;
22240;SDS011;11289;52.524;13.694;2023-04-01T21:40:09;10.73;;;5.38;;
22240;SDS011;11289;52.524;13.694;2023-04-01T21:45:37;11.63;;;5.95;;
22240;SDS011;11289;52.524;13.694;2023-04-01T21:53:49;10.48;;;4.97;;
22240;SDS011;11289;52.524;13.694;2023-04-01T22:07:41;10.07;;;5.03;;
22240;SDS011;11289;52.524;13.694;2023-04-01T22:10:36;9.57;;;5.38;;
22240;SDS011;11289;52.524;13.694;2023-04-01T22:13:20;10.43;;;5.45;;
22240;SDS011;11289;52.524;13.694;2023-04-01T22:28:51;9.48;;;4.13;;
22240;SDS011;11289;52.524;13.694;2023-04-01T22:31:27;6.80;;;3.90;;
22240;SDS011;11289;52.524;13.694;2023-04-01T22:43:17;8.90;;;4.10;;
22240;SDS011;11289;52.524;13.694;2023-04-01T22:48:24;5.35;;;3.72;;
22240;SDS011;11289;52.524;13.694;2023-04-01T22:56:40;9.52;;;3.78;;
22240;SDS011;11289;52.524;13.694;2023-04-01T22:59:26;8.45;;;4.72;;
22240;SDS011;11289;52.524;13.694;2023-04-01T23:02:04;8.70;;;4.45;;
22240;SDS011;11289;52.524;13.694;2023-04-01T23:04:38;6.20;;;3.80;;
22240;SDS011;11289;52.524;13.694;2023-04-01T23:10:25;8.38;;;3.80;;
22240;SDS011;11289;52.524;13.694;2023-04-01T23:12:52;8.07;;;3.70;;
22240;SDS011;11289;52.524;13.694;2023-04-01T23:15:23;7.03;;;3.63;;
22240;SDS011;11289;52.524;13.694;2023-04-01T23:29:14;8.70;;;3.55;;
22240;SDS011;11289;52.524;13.694;2023-04-01T23:31:44;5.60;;;3.83;;
22240;SDS011;11289;52.524;13.694;2023-04-01T23:36:37;6.00;;;3.30;;
22240;SDS011;11289;52.524;13.694;2023-04-01T23:39:11;7.47;;;3.75;;
22240;SDS011;11289;52.524;13.694;2023-04-01T23:41:51;8.27;;;3.53;;
22240;SDS011;11289;52.524;13.694;2023-04-01T23:44:24;7.43;;;3.33;;
22240;SDS011;11289;52.524;13.694;2023-04-01T23:46:51;9.68;;;4.03;;
22240;SDS011;11289;52.524;13.694;2023-04-01T23:49:20;7.43;;;3.72;;
22240;SDS011;11289;52.524;13.694;2023-04-01T23:51:59;7.18;;;3.88;;
22240;SDS011;11289;52.524;13.694;2023-04-01T23:54:31;7.05;;;4.30;;
22240;SDS011;11289;52.524;13.694;2023-04-01T23:57:22;4.05;;;3.33;;
